Latest Weather Observations for Warwick

IDQ60801

Issued at 5:05 pm EST Thursday 31 July 2014 (issued every 30 minutes, with the page automatically refreshed every 10 minutes)

About weather observations | Map of weather stations | Latest weather observations for QLD | Other Formats
Station Details ID: 041525 Name: WARWICK Lat: -28.21 Lon: 152.10 Height: 475.4 m
Data from the previous 72 hours. | See also: Recent months at Warwick
Date/Time
EST
Temp
°C
App
Temp
°C
Dew
Point
Rel
Hum
%
Delta-T
°C
Wind Press
QNH
hPa
Press
MSL
hPa
Rain
since 9 am
mm
Dir
 
Spd
km/h
Gust
km/h
Spd
kts
Gust
kts
31/05:00pm 20.0 16.6 1.6 29 8.6 NW 9 15 5 8 1015.7 - 0.0
31/04:30pm 21.3 16.5 0.2 24 9.7 NW 15 22 8 12 1015.7 - 0.0
31/04:00pm 22.0 17.1 -0.6 22 10.3 WNW 15 26 8 14 1015.6 - 0.0
31/03:30pm 22.1 16.6 0.3 23 10.1 NW 19 24 10 13 1015.7 - 0.0
31/03:00pm 22.7 18.1 -0.7 21 10.7 W 13 19 7 10 1015.8 1015.9 0.0
31/02:30pm 22.4 17.3 -1.8 20 10.8 W 15 24 8 13 1016.2 - 0.0
31/02:00pm 22.1 16.4 -3.9 17 11.1 W 17 24 9 13 1016.6 - 0.0
31/01:30pm 21.6 16.3 -0.7 22 10.1 WNW 17 24 9 13 1017.0 - 0.0
31/01:00pm 21.7 16.3 -1.7 21 10.4 WNW 17 26 9 14 1017.6 - 0.0
31/12:30pm 21.1 15.6 -1.8 21 10.1 W 17 28 9 15 1018.4 - 0.0
31/12:00pm 20.5 15.5 -1.1 23 9.6 WNW 15 22 8 12 1019.2 1019.4 0.0
31/11:30am 19.7 14.3 -1.2 24 9.2 WNW 17 24 9 13 1020.0 - 0.0
31/11:00am 19.0 14.8 -0.7 26 8.7 WNW 11 20 6 11 1020.6 - 0.0
31/10:30am 17.5 14.4 1.5 34 7.3 SSW 7 13 4 7 1021.1 - 0.0
31/10:00am 14.3 12.5 1.1 40 5.8 CALM 0 0 0 0 1021.5 - 0.0
31/09:30am 11.0 9.1 0.3 47 4.5 CALM 0 0 0 0 1022.0 - 0.0
31/09:00am 8.4 6.4 0.0 55 3.4 CALM 0 0 0 0 1022.2 1022.4 0.0
31/08:30am 5.6 3.5 -0.9 63 2.5 CALM 0 0 0 0 1022.0 - 0.0
31/08:00am 2.6 0.4 -1.5 74 1.5 CALM 0 0 0 0 1021.8 - 0.0
31/07:30am 1.1 - - - - CALM 0 0 0 0 1021.4 - 0.0
31/07:00am -2.0 - - - - CALM 0 0 0 0 1021.1 - 0.0
31/06:30am -1.3 - - - - CALM 0 0 0 0 1020.9 - 0.0
31/06:00am -3.2 - - - - E 0 0 0 0 1020.8 1021.0 0.0
31/05:30am -1.3 - - - - CALM 0 0 0 0 1020.6 - 0.0
31/05:00am -0.7 - - - - CALM 0 0 0 0 1020.5 - 0.0
31/04:30am -0.2 - - - - CALM 0 0 0 0 1020.5 - 0.0
31/04:00am 0.5 - - - - CALM 0 0 0 0 1020.5 - 0.0
31/03:30am 0.0 - - - - ESE 0 0 0 0 1020.5 - 0.0
31/03:00am 0.9 - - - - CALM 0 0 0 0 1020.6 1020.8 0.0
31/02:30am 0.8 - - - - CALM 0 0 0 0 1020.9 - 0.0
31/02:00am 1.2 - - - - CALM 0 0 0 0 1021.1 - 0.0
31/01:30am 1.7 - - - - CALM 0 0 0 0 1021.2 - 0.0
31/01:00am 3.1 0.8 -2.5 67 2.0 CALM 0 0 0 0 1021.4 - 0.0
31/12:30am 3.5 1.2 -2.0 67 2.0 CALM 0 0 0 0 1021.4 - 0.0
31/12:00am 2.4 0.2 -1.4 76 1.4 S 0 0 0 0 1021.4 1021.7 0.0
 
Date/Time
EST
Temp
°C
App
Temp
°C
Dew
Point
Rel
Hum
%
Delta-T
°C
Wind Press
QNH
hPa
Press
MSL
hPa
Rain
since 9 am
mm
Dir
 
Spd
km/h
Gust
km/h
Spd
kts
Gust
kts
30/11:30pm 2.9 0.6 -2.7 66 2.0 CALM 0 0 0 0 1021.6 - 0.0
30/11:00pm 5.2 3.1 -1.1 64 2.4 CALM 0 0 0 0 1021.5 - 0.0
30/10:30pm 5.9 3.6 -2.1 56 3.0 CALM 0 0 0 0 1021.6 - 0.0
30/10:00pm 5.3 1.3 -2.2 58 2.8 ENE 9 11 5 6 1021.5 - 0.0
30/09:30pm 6.8 4.6 -1.2 56 3.1 CALM 0 0 0 0 1021.4 - 0.0
30/09:00pm 6.4 2.7 -2.8 52 3.4 ENE 7 9 4 5 1021.4 1021.7 0.0
30/08:30pm 7.0 3.0 -2.6 50 3.6 ENE 9 13 5 7 1021.1 - 0.0
30/08:00pm 9.0 5.6 -2.4 44 4.4 NE 6 11 3 6 1021.1 - 0.0
30/07:46pm 9.8 6.4 -2.2 43 4.7 NW 6 9 3 5 1021.0 - 0.0
30/07:30pm 15.0 11.5 1.0 38 6.2 WNW 9 13 5 7 1020.9 - 0.0
30/07:00pm 15.8 11.6 -0.7 32 7.1 W 11 15 6 8 1020.7 - 0.0
30/06:30pm 16.2 12.1 -0.4 32 7.2 W 11 15 6 8 1020.3 - 0.0
30/06:00pm 16.3 12.7 0.5 34 7.0 W 9 13 5 7 1020.0 1020.2 0.0
30/05:30pm 15.6 12.6 2.2 40 6.1 W 7 9 4 5 1019.8 - 0.0
30/05:00pm 18.9 14.7 -1.2 25 8.8 WSW 11 15 6 8 1019.6 - 0.0
30/04:30pm 21.2 15.8 -4.3 17 10.7 WSW 15 20 8 11 1019.3 - 0.0
30/04:00pm 22.2 17.8 -2.8 18 10.9 W 11 19 6 10 1019.0 - 0.0
30/03:30pm 22.7 18.7 -2.0 19 11.0 W 9 13 5 7 1018.8 - 0.0
30/03:00pm 22.4 17.9 -3.6 17 11.2 WNW 11 17 6 9 1018.8 1019.0 0.0
30/02:30pm 22.3 18.5 -0.9 21 10.5 W 9 20 5 11 1018.8 - 0.0
30/02:00pm 22.3 19.0 -0.1 22 10.3 WNW 7 15 4 8 1019.0 - 0.0
30/01:30pm 21.8 17.3 0.0 23 10.0 W 13 22 7 12 1019.3 - 0.0
30/01:00pm 21.6 18.9 0.0 23 9.9 NW 4 9 2 5 1019.8 - 0.0
30/12:30pm 20.7 17.6 -2.7 20 10.1 N 4 13 2 7 1020.4 - 0.0
30/12:00pm 20.0 17.3 -2.2 22 9.6 S 2 11 1 6 1021.1 1021.3 0.0
30/11:30am 19.6 16.4 -0.6 25 9.0 SE 6 9 3 5 1021.9 - 0.0
30/11:00am 18.1 15.4 0.2 30 8.0 W 4 11 2 6 1022.4 - 0.0
30/10:30am 16.2 13.8 -0.4 32 7.2 NNW 2 7 1 4 1022.9 - 0.0
30/10:00am 14.8 12.8 -0.4 35 6.5 CALM 0 0 0 0 1023.2 - 0.0
30/09:30am 11.9 9.9 -0.3 43 5.1 CALM 0 0 0 0 1023.4 - 0.0
30/09:00am 9.5 7.4 -0.7 49 4.1 CALM 0 0 0 0 1023.5 1023.8 0.0
30/08:30am 6.3 3.6 -6.0 41 4.2 CALM 0 0 0 0 1023.7 - 0.0
30/08:00am 3.1 - - - - CALM 0 0 0 0 1023.6 - 0.0
30/07:30am 0.9 - - - - CALM 0 0 0 0 1023.5 - 0.0
30/07:00am -3.1 - - - - CALM 0 0 0 0 1023.3 - 0.0
30/06:30am -2.4 - - - - CALM 0 0 0 0 1022.9 - 0.0
30/06:00am -2.7 - - - - CALM 0 0 0 0 1022.8 1023.0 0.0
30/05:30am -3.1 - - - - CALM 0 0 0 0 1022.7 - 0.0
30/05:00am -2.2 - - - - E 4 9 2 5 1022.3 - 0.0
30/04:30am -1.4 - - - - CALM 0 7 0 4 1022.0 - 0.0
30/04:00am -1.8 - - - - CALM 0 0 0 0 1022.1 - 0.0
30/03:30am -1.5 - - - - CALM 0 0 0 0 1022.1 - 0.0
30/03:00am -0.9 - - - - CALM 0 0 0 0 1022.2 1022.4 0.0
30/02:30am 0.9 -1.2 -0.6 90 0.6 CALM 0 0 0 0 1022.2 - 0.0
30/02:00am 0.9 - - - - CALM 0 0 0 0 1022.4 - 0.0
30/01:30am 0.6 - - - - CALM 0 0 0 0 1022.5 - 0.0
30/01:00am 0.8 - - - - CALM 0 0 0 0 1022.8 - 0.0
30/12:30am 1.5 -0.6 -1.0 83 0.9 CALM 0 0 0 0 1023.0 - 0.0
30/12:00am 4.3 1.0 -1.3 67 2.1 NE 6 7 3 4 1023.1 1023.4 0.0
 
Date/Time
EST
Temp
°C
App
Temp
°C
Dew
Point
Rel
Hum
%
Delta-T
°C
Wind Press
QNH
hPa
Press
MSL
hPa
Rain
since 9 am
mm
Dir
 
Spd
km/h
Gust
km/h
Spd
kts
Gust
kts
29/11:30pm 4.3 1.7 -1.6 65 2.2 ENE 2 7 1 4 1022.8 - 0.0
29/11:00pm 3.1 1.0 -0.9 75 1.5 CALM 0 0 0 0 1023.0 - 0.0
29/10:30pm 4.6 2.2 -0.3 70 1.9 E 2 6 1 3 1022.9 - 0.0
29/10:00pm 4.8 0.8 -2.3 60 2.6 NE 9 11 5 6 1022.7 - 0.0
29/09:30pm 4.6 2.4 -1.9 63 2.4 CALM 0 0 0 0 1022.5 - 0.0
29/09:00pm 5.0 1.7 -1.3 64 2.4 NNE 6 7 3 4 1022.1 1022.3 0.0
29/08:30pm 6.9 4.6 -2.4 51 3.5 CALM 0 0 0 0 1021.8 - 0.0
29/08:00pm 6.1 4.0 -0.6 62 2.6 CALM 0 0 0 0 1021.6 - 0.0
29/07:30pm 10.6 7.2 -0.6 46 4.6 NW 7 9 4 5 1021.0 - 0.0
29/07:00pm 11.8 8.1 -0.1 44 5.0 WNW 9 11 5 6 1020.8 - 0.0
29/06:30pm 12.7 8.6 -0.4 40 5.5 WNW 11 13 6 7 1020.6 - 0.0
29/06:00pm 12.6 8.9 0.1 42 5.3 WNW 9 11 5 6 1020.4 1020.6 0.0
29/05:30pm 12.8 9.1 0.1 41 5.4 WNW 9 9 5 5 1020.3 - 0.0
29/05:00pm 16.8 13.6 0.7 33 7.2 W 7 9 4 5 1020.1 - 0.0
29/04:30pm 18.7 14.1 -1.2 26 8.7 W 13 19 7 10 1019.9 - 0.0
29/04:00pm 19.4 14.8 -1.4 24 9.1 W 13 20 7 11 1019.8 - 0.0
29/03:30pm 19.8 14.8 -1.4 24 9.3 W 15 22 8 12 1019.8 - 0.0
29/03:00pm 20.1 14.3 -1.5 23 9.5 WSW 19 24 10 13 1019.9 1020.1 0.0
29/02:30pm 20.3 15.7 -0.7 24 9.4 W 13 24 7 13 1020.1 - 0.0
29/02:00pm 19.7 14.9 0.3 27 8.8 W 15 26 8 14 1020.3 - 0.0
29/01:30pm 19.1 14.2 -0.5 26 8.7 WSW 15 20 8 11 1020.4 - 0.0
29/01:00pm 18.9 13.9 -0.9 26 8.7 SW 15 30 8 16 1020.6 - 0.0
29/12:30pm 18.7 13.0 -0.5 27 8.5 WSW 19 24 10 13 1021.1 - 0.0
29/12:00pm 18.1 13.3 0.2 30 8.0 SW 15 26 8 14 1021.8 1022.0 0.0
29/11:30am 17.9 13.0 -0.2 29 8.0 WSW 15 26 8 14 1022.2 - 0.0
29/11:00am 16.8 12.5 1.3 35 7.0 W 13 20 7 11 1022.9 - 0.0
29/10:30am 15.6 11.3 0.9 37 6.5 W 13 19 7 10 1023.2 - 0.0
29/10:00am 14.7 10.4 1.1 39 6.0 WSW 13 19 7 10 1023.4 - 0.0
29/09:30am 13.0 9.8 1.0 44 5.2 WSW 7 15 4 8 1023.6 - 0.0
29/09:00am 9.5 7.2 0.3 52 3.8 NW 2 7 1 4 1023.7 1024.0 0.0
29/08:30am 5.6 3.3 -2.5 56 3.0 CALM 0 0 0 0 1023.7 - 0.0
29/08:00am 2.9 - - - - CALM 0 0 0 0 1023.5 - 0.0
29/07:30am 0.3 - - - - CALM 0 0 0 0 1023.3 - 0.0
29/07:00am -2.3 - - - - CALM 0 0 0 0 1023.1 - 0.0
29/06:30am -2.8 - - - - CALM 0 0 0 0 1022.7 - 0.0
29/06:00am -2.7 - - - - CALM 0 0 0 0 1022.3 1022.5 0.0
29/05:30am -1.8 - - - - CALM 0 0 0 0 1021.9 - 0.0
29/05:00am -1.3 - - - - CALM 0 0 0 0 1021.6 - 0.0
29/04:30am -2.3 - - - - CALM 0 0 0 0 1021.5 - 0.0
29/04:00am -1.1 - - - - CALM 0 0 0 0 1021.3 - 0.0
29/03:30am -1.2 - - - - CALM 0 0 0 0 1021.3 - 0.0
29/03:00am -0.6 - - - - CALM 0 0 0 0 1021.3 1021.6 0.0
29/02:30am 1.8 -0.4 -1.2 80 1.1 CALM 0 0 0 0 1021.4 - 0.0
29/02:00am 0.9 - - - - CALM 0 0 0 0 1021.8 - 0.0
29/01:30am 0.0 - - - - WNW 2 6 1 3 1021.9 - 0.0
29/01:00am -0.3 - - - - CALM 0 0 0 0 1022.1 - 0.0
29/12:30am 1.4 -0.8 -1.4 82 1.0 CALM 0 0 0 0 1022.2 - 0.0
29/12:00am 2.2 0.1 -1.1 79 1.2 CALM 0 0 0 0 1022.4 1022.6 0.0
 
Date/Time
EST
Temp
°C
App
Temp
°C
Dew
Point
Rel
Hum
%
Delta-T
°C
Wind Press
QNH
hPa
Press
MSL
hPa
Rain
since 9 am
mm
Dir
 
Spd
km/h
Gust
km/h
Spd
kts
Gust
kts
28/11:30pm 2.1 0.0 -0.6 82 1.0 CALM 0 0 0 0 1022.7 - 0.0
28/11:00pm 2.5 -0.8 -1.6 74 1.5 ENE 6 11 3 6 1022.8 - 0.0
28/10:30pm 3.9 1.7 -1.8 66 2.1 CALM 0 0 0 0 1022.8 - 0.0
28/10:00pm 4.5 1.9 -1.7 64 2.3 ENE 2 6 1 3 1022.9 - 0.0
28/09:30pm 5.6 2.0 -1.9 58 2.8 NE 7 9 4 5 1022.9 - 0.0
28/09:00pm 5.2 1.7 -1.4 62 2.5 ENE 7 9 4 5 1022.8 1023.0 0.0
28/08:30pm 6.0 3.9 -1.0 61 2.7 CALM 0 0 0 0 1022.6 - 0.0
28/08:00pm 9.5 6.7 -0.3 50 4.0 W 4 7 2 4 1022.3 - 0.0
28/07:30pm 11.7 8.1 0.7 47 4.7 W 9 11 5 6 1022.2 - 0.0
28/07:00pm 12.3 9.0 0.3 43 5.1 W 7 11 4 6 1021.6 - 0.0
28/06:30pm 12.6 9.0 0.7 44 5.1 W 9 13 5 7 1021.4 - 0.0
28/06:00pm 13.3 9.7 0.9 42 5.4 W 9 11 5 6 1021.2 1021.5 0.0
28/05:30pm 13.7 10.7 1.8 44 5.3 W 7 9 4 5 1021.1 - 0.0

Other Formats:

Comma delimited format used in spreadsheet applications
http://www.bom.gov.au/fwo/IDQ60801/IDQ60801.94555.axf

JavaScript Object Notation format (JSON) in row-major order
http://www.bom.gov.au/fwo/IDQ60801/IDQ60801.94555.json